Montague Village, Texas
Current Conditions -  °F | °C
As of 10:56 AM on Sunday 23 Nov 2014 (Local Time) from KHLR Reporting Station
Clear Clear  
Wind Chill: 73°   Ceiling: Unl
Heat Index: 73°   Visibility: 10mi
Dew Point: 43°   Wind: 17mph
Humidity: 34%   Direction: 240°WSW
Pressure: 29.58"   Gusts: 26mph
Location:  31.2151°N, 97.7405°W
Report Text: KHLR 231656Z AUTO 24015G23KT 10SM CLR 23/06 A2958 RMK AO2 PK WND 24026/1636 SLP043 P0001 T02280061 $
Loading
Personal Weather Stations






























Interactive Weather Map New forecast layout! Learn more

10-Day Weather Forecast

Advertisements
Track Severe Weather on mobile